createdAt,value
2022-11-25T00:02:17.431Z,8.03
2022-11-25T00:05:15.080Z,8.03
2022-11-25T00:08:12.534Z,8.03
2022-11-25T00:11:10.018Z,8.03
2022-11-25T00:14:07.493Z,8.01
2022-11-25T00:17:05.006Z,8.00
2022-11-25T00:20:06.192Z,7.99
2022-11-25T00:23:03.653Z,7.99
2022-11-25T00:26:01.108Z,7.98
2022-11-25T00:28:58.561Z,7.97
2022-11-25T00:31:56.057Z,7.97
2022-11-25T00:34:53.532Z,7.98
2022-11-25T00:37:51.013Z,7.99
2022-11-25T00:41:08.447Z,8.00
2022-11-25T00:44:23.749Z,8.01
2022-11-25T00:47:21.246Z,8.01
2022-11-25T00:50:18.734Z,8.02
2022-11-25T00:53:16.207Z,8.02
2022-11-25T00:56:17.111Z,8.03
2022-11-25T00:59:14.558Z,8.04
2022-11-25T01:02:12.104Z,8.05
2022-11-25T01:05:09.645Z,8.06
2022-11-25T01:08:07.110Z,8.08
2022-11-25T01:11:04.624Z,8.09
2022-11-25T01:14:02.109Z,8.08
2022-11-25T01:16:59.599Z,8.06
2022-11-25T01:19:57.088Z,8.04
2022-11-25T01:22:54.575Z,8.05
2022-11-25T01:25:52.038Z,8.04
2022-11-25T01:28:49.500Z,8.01
2022-11-25T01:31:47.036Z,7.99
2022-11-25T01:34:44.729Z,7.94
2022-11-25T01:37:42.253Z,7.89
2022-11-25T01:40:39.704Z,7.83
2022-11-25T01:43:37.190Z,7.77
2022-11-25T01:46:34.669Z,7.72
2022-11-25T01:49:32.143Z,7.69
2022-11-25T01:52:29.621Z,7.66
2022-11-25T01:55:27.146Z,7.64
2022-11-25T01:58:24.596Z,7.63
2022-11-25T02:01:23.247Z,7.63
2022-11-25T02:04:20.724Z,7.62
2022-11-25T02:07:18.274Z,7.60
2022-11-25T02:10:15.805Z,7.55
2022-11-25T02:13:13.289Z,7.51
2022-11-25T02:16:10.781Z,7.48
2022-11-25T02:19:08.261Z,7.48
2022-11-25T02:22:06.766Z,7.46
2022-11-25T02:25:04.478Z,7.45
2022-11-25T02:28:01.952Z,7.44
2022-11-25T02:30:59.384Z,7.43
2022-11-25T02:33:56.860Z,7.40
2022-11-25T02:36:54.303Z,7.38
2022-11-25T02:39:51.770Z,7.35
2022-11-25T02:42:49.202Z,7.32
2022-11-25T02:45:46.714Z,7.29
2022-11-25T02:49:07.937Z,7.23
2022-11-25T02:52:01.629Z,7.19
2022-11-25T02:54:59.079Z,7.15
2022-11-25T02:57:56.530Z,7.10
2022-11-25T03:00:54.012Z,7.05
2022-11-25T03:03:51.500Z,7.04
2022-11-25T03:06:48.939Z,7.00
2022-11-25T03:09:46.896Z,7.01
2022-11-25T03:12:44.355Z,7.01
2022-11-25T03:15:41.816Z,7.04
2022-11-25T03:18:39.314Z,7.05
2022-11-25T03:21:36.767Z,7.06
2022-11-25T03:24:34.473Z,7.06
2022-11-25T03:27:32.233Z,7.07
2022-11-25T03:30:29.719Z,7.08
2022-11-25T03:33:27.170Z,7.07
2022-11-25T03:36:24.649Z,7.04
2022-11-25T03:39:22.908Z,7.02
2022-11-25T03:42:21.407Z,6.98
2022-11-25T03:45:18.867Z,6.97
2022-11-25T03:48:16.313Z,6.95
2022-11-25T03:51:13.800Z,6.94
2022-11-25T03:54:11.254Z,6.92
2022-11-25T03:57:08.756Z,6.91
2022-11-25T04:00:06.433Z,6.89
2022-11-25T04:03:03.882Z,6.86
2022-11-25T04:06:01.323Z,6.84
2022-11-25T04:08:58.801Z,6.79
2022-11-25T04:12:13.856Z,6.74
2022-11-25T04:15:11.336Z,6.68
2022-11-25T04:18:08.908Z,6.63
2022-11-25T04:21:06.375Z,6.56
2022-11-25T04:24:03.852Z,6.51
2022-11-25T04:27:01.309Z,6.46
2022-11-25T04:29:58.769Z,6.41
2022-11-25T04:32:56.289Z,6.35
2022-11-25T04:35:53.739Z,6.30
2022-11-25T04:38:51.206Z,6.21
2022-11-25T04:41:49.752Z,6.14
2022-11-25T04:45:07.306Z,6.07
2022-11-25T04:48:04.689Z,5.99
2022-11-25T04:51:02.151Z,5.94
2022-11-25T04:53:59.598Z,5.86
2022-11-25T04:56:57.035Z,5.77
2022-11-25T04:59:54.496Z,5.69
2022-11-25T05:02:51.992Z,5.61
2022-11-25T05:05:49.503Z,5.53
2022-11-25T05:08:46.994Z,5.43
2022-11-25T05:11:44.466Z,5.37
2022-11-25T05:14:41.924Z,5.30
2022-11-25T05:17:39.371Z,5.26
2022-11-25T05:20:36.853Z,5.20
2022-11-25T05:23:34.333Z,5.15
2022-11-25T05:26:32.230Z,5.08
2022-11-25T05:29:29.733Z,5.05
2022-11-25T05:32:27.194Z,5.02
2022-11-25T05:35:24.660Z,4.99
2022-11-25T05:38:22.128Z,4.94
2022-11-25T05:41:19.591Z,4.89
2022-11-25T05:44:22.454Z,4.84
2022-11-25T05:47:20.553Z,4.78
2022-11-25T05:50:18.044Z,4.74
2022-11-25T05:53:17.435Z,4.70
2022-11-25T05:56:14.912Z,4.68
2022-11-25T05:59:12.376Z,4.66
2022-11-25T06:02:09.887Z,4.66
2022-11-25T06:05:07.435Z,4.65
2022-11-25T06:08:04.868Z,4.62
2022-11-25T06:11:02.331Z,4.60
2022-11-25T06:13:59.796Z,4.58
2022-11-25T06:16:57.290Z,4.57
2022-11-25T06:19:54.740Z,4.53
2022-11-25T06:22:52.283Z,4.51
2022-11-25T06:25:49.742Z,4.48
2022-11-25T06:28:47.193Z,4.44
2022-11-25T06:31:44.705Z,4.40
2022-11-25T06:34:42.954Z,4.38
2022-11-25T06:37:40.528Z,4.34
2022-11-25T06:40:37.975Z,4.31
2022-11-25T06:43:35.826Z,4.29
2022-11-25T06:46:33.329Z,4.28
2022-11-25T06:49:30.970Z,4.27
2022-11-25T06:52:28.432Z,4.28
2022-11-25T06:55:25.906Z,4.29
2022-11-25T06:58:35.476Z,4.29
2022-11-25T07:01:33.646Z,4.29
2022-11-25T07:04:31.150Z,4.32
2022-11-25T07:07:28.670Z,4.33
2022-11-25T07:10:26.173Z,4.36
2022-11-25T07:13:23.647Z,4.39
2022-11-25T07:16:21.226Z,4.42
2022-11-25T07:19:18.911Z,4.46
2022-11-25T07:22:16.360Z,4.51
2022-11-25T07:25:13.824Z,4.58
2022-11-25T07:28:11.284Z,4.63
2022-11-25T07:31:27.539Z,4.69
2022-11-25T07:34:26.191Z,4.79
2022-11-25T07:37:23.909Z,4.89
2022-11-25T07:40:21.361Z,5.00
2022-11-25T07:43:18.965Z,5.10
2022-11-25T07:46:16.793Z,5.21
2022-11-25T07:49:14.483Z,5.35
2022-11-25T07:52:11.957Z,5.50
2022-11-25T07:55:09.425Z,5.61
2022-11-25T07:58:06.913Z,5.71
2022-11-25T08:01:04.385Z,5.82
2022-11-25T08:04:01.828Z,5.93
2022-11-25T08:06:59.263Z,6.05
2022-11-25T08:09:56.703Z,6.17
2022-11-25T08:12:54.148Z,6.30
2022-11-25T08:15:51.774Z,6.46
2022-11-25T08:18:49.257Z,6.60
2022-11-25T08:21:48.308Z,6.71
2022-11-25T08:24:45.810Z,6.84
2022-11-25T08:27:43.272Z,6.95
2022-11-25T08:30:40.784Z,7.05
2022-11-25T08:33:38.265Z,7.15
2022-11-25T08:36:35.755Z,7.25
2022-11-25T08:39:51.620Z,7.35
2022-11-25T08:42:49.655Z,7.47
2022-11-25T08:45:47.124Z,7.56
2022-11-25T08:48:44.613Z,7.65
2022-11-25T08:51:42.110Z,7.70
2022-11-25T08:54:39.607Z,7.74
2022-11-25T08:57:37.126Z,7.79
2022-11-25T09:00:34.620Z,7.86
2022-11-25T09:03:32.085Z,7.93
2022-11-25T09:06:29.537Z,8.02
2022-11-25T09:09:27.013Z,8.08
2022-11-25T09:12:26.327Z,8.13
2022-11-25T09:15:23.826Z,8.20
2022-11-25T09:18:25.803Z,8.27
2022-11-25T09:21:25.102Z,8.34
2022-11-25T09:24:22.882Z,8.39
2022-11-25T09:27:20.357Z,8.46
2022-11-25T09:30:17.823Z,8.53
2022-11-25T09:33:15.303Z,8.60
2022-11-25T09:36:12.893Z,8.67
2022-11-25T09:39:10.349Z,8.72
2022-11-25T09:42:25.505Z,8.79
2022-11-25T09:45:40.665Z,8.87
2022-11-25T09:48:38.144Z,8.95
2022-11-25T09:51:35.610Z,9.02
2022-11-25T09:54:33.047Z,9.07
2022-11-25T09:57:30.510Z,9.11
2022-11-25T10:00:27.996Z,9.14
2022-11-25T10:03:25.541Z,9.20
2022-11-25T10:06:23.977Z,9.28
2022-11-25T10:09:21.469Z,9.35
2022-11-25T10:12:18.930Z,9.42
2022-11-25T10:15:16.395Z,9.48
2022-11-25T10:18:13.877Z,9.53
2022-11-25T10:21:11.481Z,9.59
2022-11-25T10:24:08.917Z,9.66
2022-11-25T10:27:06.374Z,9.73
2022-11-25T10:30:04.428Z,9.76
2022-11-25T10:33:02.684Z,9.82
2022-11-25T10:36:00.414Z,9.88
2022-11-25T10:38:57.876Z,9.94
2022-11-25T10:41:55.349Z,10.02
2022-11-25T10:44:54.900Z,10.09
2022-11-25T10:47:52.516Z,10.15
2022-11-25T10:50:51.896Z,10.23
2022-11-25T10:53:49.363Z,10.30
2022-11-25T10:56:46.810Z,10.37
2022-11-25T10:59:44.295Z,10.42
2022-11-25T11:02:41.869Z,10.52
2022-11-25T11:05:45.213Z,10.60
2022-11-25T11:08:44.186Z,10.66
2022-11-25T11:11:41.732Z,10.70
2022-11-25T11:14:39.297Z,10.69
2022-11-25T11:17:37.487Z,10.71
2022-11-25T11:20:35.128Z,10.74
2022-11-25T11:23:32.596Z,10.73
2022-11-25T11:26:30.070Z,10.74
2022-11-25T11:29:27.543Z,10.79
2022-11-25T11:32:25.012Z,10.87
2022-11-25T11:35:22.641Z,10.98
2022-11-25T11:38:20.098Z,11.09
2022-11-25T11:41:17.553Z,11.14
2022-11-25T11:44:15.050Z,11.13
2022-11-25T11:47:12.525Z,11.14
2022-11-25T11:50:10.019Z,11.20
2022-11-25T11:53:07.549Z,11.22
2022-11-25T11:56:33.680Z,11.25
2022-11-25T11:59:22.456Z,11.28
2022-11-25T12:02:21.017Z,11.30
2022-11-25T12:05:18.498Z,11.29
2022-11-25T12:08:15.992Z,11.28
2022-11-25T12:11:13.499Z,11.28
2022-11-25T12:14:11.087Z,11.32
2022-11-25T12:17:08.555Z,11.31
2022-11-25T12:20:06.129Z,11.33
2022-11-25T12:23:03.605Z,11.34
2022-11-25T12:26:01.138Z,11.33
2022-11-25T12:28:58.632Z,11.33
2022-11-25T12:31:56.134Z,11.33
2022-11-25T12:34:53.645Z,11.33
2022-11-25T12:37:51.306Z,11.34
2022-11-25T12:40:48.804Z,11.32
2022-11-25T12:43:46.289Z,11.26
2022-11-25T12:46:43.758Z,11.21
2022-11-25T12:49:41.218Z,11.17
2022-11-25T12:52:38.671Z,11.14
2022-11-25T12:55:36.132Z,11.12
2022-11-25T12:58:33.595Z,11.08
2022-11-25T13:01:31.445Z,11.03
2022-11-25T13:04:28.979Z,11.00
2022-11-25T13:07:26.973Z,10.94
2022-11-25T13:10:24.556Z,10.90
2022-11-25T13:13:23.053Z,10.85
2022-11-25T13:16:21.520Z,10.81
2022-11-25T13:19:19.465Z,10.78
2022-11-25T13:22:18.034Z,10.75
2022-11-25T13:25:15.495Z,10.73
2022-11-25T13:28:12.966Z,10.71
2022-11-25T13:31:10.447Z,10.67
2022-11-25T13:34:07.928Z,10.64
2022-11-25T13:37:05.381Z,10.61
2022-11-25T13:40:03.574Z,10.59
2022-11-25T13:43:01.778Z,10.58
2022-11-25T13:45:59.301Z,10.55
2022-11-25T13:48:57.035Z,10.52
2022-11-25T13:51:54.478Z,10.48
2022-11-25T13:54:53.720Z,10.45
2022-11-25T13:57:51.251Z,10.42
2022-11-25T14:00:48.707Z,10.38
2022-11-25T14:03:46.198Z,10.33
2022-11-25T14:06:44.271Z,10.27
2022-11-25T14:09:41.733Z,10.20
2022-11-25T14:12:39.196Z,10.15
2022-11-25T14:15:36.673Z,10.08
2022-11-25T14:19:12.043Z,10.01
2022-11-25T14:21:51.616Z,9.95
2022-11-25T14:24:50.011Z,9.89
2022-11-25T14:27:47.481Z,9.84
2022-11-25T14:30:51.765Z,9.80
2022-11-25T14:33:50.973Z,9.74
2022-11-25T14:36:48.895Z,9.69
2022-11-25T14:39:46.368Z,9.62
2022-11-25T14:42:43.956Z,9.53
2022-11-25T14:45:41.518Z,9.44
2022-11-25T14:48:39.105Z,9.37
2022-11-25T14:51:36.567Z,9.27
2022-11-25T14:54:34.178Z,9.16
2022-11-25T14:57:31.949Z,9.04
2022-11-25T15:00:29.500Z,8.90
2022-11-25T15:03:27.040Z,8.76
2022-11-25T15:06:24.583Z,8.65
2022-11-25T15:09:22.078Z,8.52
2022-11-25T15:12:19.537Z,8.40
2022-11-25T15:15:16.994Z,8.30
2022-11-25T15:18:14.458Z,8.19
2022-11-25T15:21:11.914Z,8.10
2022-11-25T15:24:09.359Z,7.99
2022-11-25T15:27:06.811Z,7.85
2022-11-25T15:30:04.344Z,7.78
2022-11-25T15:33:03.664Z,7.69
2022-11-25T15:36:01.157Z,7.61
2022-11-25T15:38:58.634Z,7.52
2022-11-25T15:41:56.086Z,7.43
2022-11-25T15:44:53.547Z,7.34
2022-11-25T15:47:50.992Z,7.27
2022-11-25T15:50:48.440Z,7.19
2022-11-25T15:53:47.114Z,7.12
2022-11-25T15:56:44.580Z,7.05
2022-11-25T15:59:42.062Z,6.97
2022-11-25T16:02:39.566Z,6.93
2022-11-25T16:05:37.114Z,6.86
2022-11-25T16:08:35.173Z,6.80
2022-11-25T16:11:33.929Z,6.74
2022-11-25T16:14:31.890Z,6.69
2022-11-25T16:17:29.494Z,6.66
2022-11-25T16:20:27.015Z,6.64
2022-11-25T16:23:24.952Z,6.60
2022-11-25T16:26:22.438Z,6.57
2022-11-25T16:29:19.940Z,6.56
2022-11-25T16:32:18.394Z,6.56
2022-11-25T16:35:15.924Z,6.54
2022-11-25T16:38:14.122Z,6.52
2022-11-25T16:41:11.639Z,6.50
2022-11-25T16:44:09.237Z,6.49
2022-11-25T16:47:06.697Z,6.49
2022-11-25T16:50:07.784Z,6.49
2022-11-25T16:53:07.475Z,6.49
2022-11-25T16:56:05.313Z,6.47
2022-11-25T16:59:03.389Z,6.48
2022-11-25T17:02:01.288Z,6.49
2022-11-25T17:04:58.926Z,6.48
2022-11-25T17:07:56.768Z,6.47
2022-11-25T17:10:54.314Z,6.45
2022-11-25T17:13:52.088Z,6.42
2022-11-25T17:16:50.125Z,6.41
2022-11-25T17:19:48.475Z,6.40
2022-11-25T17:22:46.308Z,6.40
2022-11-25T17:25:43.953Z,6.39
2022-11-25T17:28:41.431Z,6.37
2022-11-25T17:31:40.075Z,6.36
2022-11-25T17:34:39.527Z,6.36
2022-11-25T17:37:37.352Z,6.37
2022-11-25T17:40:34.867Z,6.37
2022-11-25T17:43:34.710Z,6.39
2022-11-25T17:46:33.152Z,6.40
2022-11-25T17:49:31.988Z,6.43
2022-11-25T17:52:30.392Z,6.43
2022-11-25T17:55:28.029Z,6.44
2022-11-25T17:58:27.503Z,6.46
2022-11-25T18:01:25.172Z,6.47
2022-11-25T18:04:23.335Z,6.46
2022-11-25T18:07:21.470Z,6.47
2022-11-25T18:10:21.215Z,6.47
2022-11-25T18:13:19.841Z,6.46
2022-11-25T18:16:18.911Z,6.45
2022-11-25T18:19:16.952Z,6.44
2022-11-25T18:22:15.015Z,6.42
2022-11-25T18:25:13.185Z,6.40
2022-11-25T18:28:11.493Z,6.39
2022-11-25T18:31:09.794Z,6.39
2022-11-25T18:34:07.885Z,6.38
2022-11-25T18:37:06.395Z,6.36
2022-11-25T18:40:05.614Z,6.34
2022-11-25T18:43:03.801Z,6.33
2022-11-25T18:46:01.920Z,6.33
2022-11-25T18:49:00.232Z,6.32
2022-11-25T18:51:58.187Z,6.32
2022-11-25T18:54:56.608Z,6.33
2022-11-25T18:57:55.317Z,6.33
2022-11-25T19:00:53.801Z,6.32
2022-11-25T19:03:52.387Z,6.29
2022-11-25T19:06:50.386Z,6.26
2022-11-25T19:09:49.494Z,6.26
2022-11-25T19:12:48.864Z,6.26
2022-11-25T19:15:47.443Z,6.26
2022-11-25T19:18:49.240Z,6.27
2022-11-25T19:21:47.918Z,6.29
2022-11-25T19:24:46.413Z,6.28
2022-11-25T19:27:45.111Z,6.29
2022-11-25T19:30:44.730Z,6.29
2022-11-25T19:33:43.964Z,6.30
2022-11-25T19:36:42.078Z,6.31
2022-11-25T19:39:43.648Z,6.32
2022-11-25T19:42:41.679Z,6.33
2022-11-25T19:45:39.866Z,6.34
2022-11-25T19:48:39.375Z,6.36
2022-11-25T19:51:37.423Z,6.36
2022-11-25T19:54:36.536Z,6.36
2022-11-25T19:57:36.075Z,6.36
2022-11-25T20:00:35.223Z,6.36
2022-11-25T20:03:33.799Z,6.37
2022-11-25T20:06:32.696Z,6.37
2022-11-25T20:09:30.247Z,6.36
2022-11-25T20:12:28.862Z,6.37
2022-11-25T20:15:27.587Z,6.37
2022-11-25T20:18:26.118Z,6.39
2022-11-25T20:21:24.434Z,6.40
2022-11-25T20:24:22.439Z,6.42
2022-11-25T20:27:21.481Z,6.44
2022-11-25T20:30:20.141Z,6.44
2022-11-25T20:33:24.686Z,6.45
2022-11-25T20:36:23.105Z,6.47
2022-11-25T20:39:21.683Z,6.48
2022-11-25T20:42:20.280Z,6.50
2022-11-25T20:45:17.828Z,6.49
2022-11-25T20:48:16.414Z,6.51
2022-11-25T20:51:15.194Z,6.51
2022-11-25T20:54:14.911Z,6.49
2022-11-25T20:57:15.155Z,6.47
2022-11-25T21:00:13.852Z,6.45
2022-11-25T21:03:12.283Z,6.43
2022-11-25T21:06:10.890Z,6.40
2022-11-25T21:09:09.361Z,6.37
2022-11-25T21:12:07.866Z,6.33
2022-11-25T21:15:05.425Z,6.29
2022-11-25T21:18:04.823Z,6.26
2022-11-25T21:21:02.435Z,6.22
2022-11-25T21:24:00.420Z,6.18
2022-11-25T21:26:58.410Z,6.13
2022-11-25T21:29:55.968Z,6.09
2022-11-25T21:32:53.424Z,6.05
2022-11-25T21:35:51.056Z,5.99
2022-11-25T21:38:48.875Z,5.95
2022-11-25T21:41:46.685Z,5.87
2022-11-25T21:44:44.218Z,5.79
2022-11-25T21:47:41.745Z,5.73
2022-11-25T21:50:39.205Z,5.64
2022-11-25T21:53:37.568Z,5.59
2022-11-25T21:56:35.731Z,5.54
2022-11-25T21:59:33.193Z,5.52
2022-11-25T22:02:30.702Z,5.49
2022-11-25T22:05:28.265Z,5.45
2022-11-25T22:08:25.712Z,5.42
2022-11-25T22:11:24.299Z,5.39
2022-11-25T22:14:21.753Z,5.37
2022-11-25T22:17:19.234Z,5.37
2022-11-25T22:20:16.746Z,5.41
2022-11-25T22:23:14.204Z,5.48
2022-11-25T22:26:11.671Z,5.54
2022-11-25T22:29:09.127Z,5.65
2022-11-25T22:32:12.403Z,5.78
2022-11-25T22:35:10.280Z,5.91
2022-11-25T22:38:07.728Z,6.06
2022-11-25T22:41:05.255Z,6.19
2022-11-25T22:44:02.713Z,6.35
2022-11-25T22:47:00.177Z,6.49
2022-11-25T22:49:57.646Z,6.64
2022-11-25T22:52:55.244Z,6.74
2022-11-25T22:55:53.911Z,6.84
2022-11-25T22:58:51.382Z,6.93
2022-11-25T23:01:48.909Z,7.00
2022-11-25T23:04:46.376Z,7.08
2022-11-25T23:07:43.861Z,7.16
2022-11-25T23:10:41.405Z,7.24
2022-11-25T23:13:38.889Z,7.32
2022-11-25T23:16:36.512Z,7.39
2022-11-25T23:19:33.977Z,7.45
2022-11-25T23:22:31.428Z,7.51
2022-11-25T23:25:31.598Z,7.57
2022-11-25T23:28:28.983Z,7.64
2022-11-25T23:31:26.489Z,7.71
2022-11-25T23:34:23.982Z,7.75
2022-11-25T23:37:21.449Z,7.77
2022-11-25T23:40:19.262Z,7.79
2022-11-25T23:43:16.704Z,7.80
2022-11-25T23:46:14.213Z,7.81
2022-11-25T23:49:11.735Z,7.82
2022-11-25T23:52:09.207Z,7.81
2022-11-25T23:55:06.663Z,7.81
2022-11-25T23:58:04.122Z,7.80
